Time;durP1;ratioP1;P1;durP2;ratioP2;P2;SDS_P1;SDS_P2;PMS_P1;PMS_P2;Temp;Humidity;BMP_temperature;BMP_pressure;BME280_temperature;BME280_humidity;BME280_pressure;Samples;Min_cycle;Max_cycle;Signal;HPM_P1;HPM_P2
2022/06/20 00:00:27;;;;;;;10.97;2.70;;;;;;;22.43;51.22;99106.38;4203372;28;20237;-69
2022/06/20 00:02:58;;;;;;;10.63;2.77;;;;;;;22.39;51.69;99115.28;4222724;28;21359;-72
2022/06/20 00:05:29;;;;;;;7.30;2.80;;;;;;;22.31;52.36;99111.94;4215082;28;20345;-73
2022/06/20 00:07:55;;;;;;;10.27;3.40;;;;;;;22.27;51.95;99112.72;4222043;28;21194;-71
2022/06/20 00:10:24;;;;;;;7.53;3.10;;;;;;;22.31;51.92;99116.53;4213639;28;21609;-72
2022/06/20 00:12:51;;;;;;;5.43;2.90;;;;;;;22.26;53.07;99109.16;4231802;28;20308;-71
2022/06/20 00:15:23;;;;;;;14.17;3.07;;;;;;;22.06;53.07;99107.00;4212686;28;20293;-71
2022/06/20 00:17:50;;;;;;;7.90;2.93;;;;;;;22.08;52.91;99095.94;4227998;28;20224;-70
2022/06/20 00:20:16;;;;;;;10.53;3.00;;;;;;;22.12;52.29;99075.38;4217137;28;20244;-71
2022/06/20 00:22:43;;;;;;;8.90;3.13;;;;;;;22.13;52.11;99074.31;4224020;28;25024;-70
2022/06/20 00:25:10;;;;;;;11.60;3.27;;;;;;;21.96;52.52;99060.00;4202708;28;20231;-71
2022/06/20 00:27:37;;;;;;;9.57;3.40;;;;;;;21.94;52.76;99065.72;4215765;28;21808;-72
2022/06/20 00:30:06;;;;;;;11.53;3.10;;;;;;;22.00;52.70;99058.44;4216979;28;20638;-72
2022/06/20 00:32:32;;;;;;;6.93;2.67;;;;;;;21.99;52.33;99045.97;4207482;28;20236;-72
2022/06/20 00:34:59;;;;;;;5.70;3.00;;;;;;;22.03;51.76;99036.25;4215709;28;21024;-72
2022/06/20 00:37:26;;;;;;;8.57;3.43;;;;;;;22.03;51.92;99038.97;4224770;28;20244;-71
2022/06/20 00:39:53;;;;;;;8.37;3.17;;;;;;;21.96;51.99;99027.50;4231654;28;20547;-72
2022/06/20 00:42:19;;;;;;;8.40;3.07;;;;;;;21.82;52.43;99037.91;4217247;28;22663;-72
2022/06/20 00:44:48;;;;;;;7.93;2.90;;;;;;;21.82;53.04;99049.59;4217367;28;20301;-72
2022/06/20 00:47:21;;;;;;;10.17;3.47;;;;;;;21.82;53.25;99041.47;4223333;28;20293;-72
2022/06/20 00:50:05;;;;;;;8.17;3.10;;;;;;;21.87;52.25;99027.16;4209301;28;20273;-72
2022/06/20 00:52:45;;;;;;;8.97;3.57;;;;;;;21.85;52.32;99023.88;4212118;28;20269;-71
2022/06/20 00:55:52;;;;;;;10.70;3.10;;;;;;;21.79;52.64;99038.44;4218585;28;23708;-72
2022/06/20 00:58:37;;;;;;;8.07;3.07;;;;;;;21.76;52.93;99056.00;4197627;28;20236;-72
2022/06/20 01:01:10;;;;;;;12.63;3.30;;;;;;;21.56;54.63;99089.03;4202458;28;20333;-72
2022/06/20 01:03:41;;;;;;;7.73;3.43;;;;;;;21.40;55.94;99085.31;4207861;28;20235;-71
2022/06/20 01:06:21;;;;;;;6.60;3.00;;;;;;;21.28;55.76;99114.31;4217798;28;22063;-72
2022/06/20 01:08:50;;;;;;;4.83;3.17;;;;;;;21.28;55.38;99112.44;4207178;28;20247;-72
2022/06/20 01:11:22;;;;;;;7.87;3.13;;;;;;;21.19;55.71;99126.63;4209746;28;25902;-72
2022/06/20 01:13:50;;;;;;;7.07;3.53;;;;;;;21.06;56.89;99117.78;4229702;28;20228;-69
2022/06/20 01:16:27;;;;;;;7.60;3.60;;;;;;;20.85;57.26;99118.50;4211903;28;20674;-71
2022/06/20 01:18:55;;;;;;;7.23;3.37;;;;;;;20.93;57.34;99134.34;4206141;28;20480;-72
2022/06/20 01:21:30;;;;;;;9.23;3.83;;;;;;;20.76;58.03;99128.09;4222795;28;20297;-73
2022/06/20 01:24:21;;;;;;;8.93;3.83;;;;;;;20.65;58.98;99125.22;4215971;28;20293;-73
2022/06/20 01:27:09;;;;;;;11.07;3.23;;;;;;;20.63;59.41;99130.03;4217602;28;20306;-72
2022/06/20 01:29:36;;;;;;;7.07;3.67;;;;;;;20.32;60.53;99112.41;4218652;28;20348;-71
2022/06/20 01:32:03;;;;;;;11.80;3.83;;;;;;;20.35;60.53;99119.22;4225976;28;20236;-72
2022/06/20 01:34:31;;;;;;;9.53;3.47;;;;;;;20.16;61.41;99108.59;4220783;28;21908;-75
2022/06/20 01:39:47;;;;;;;8.60;3.70;;;;;;;20.03;61.88;99115.06;4229665;28;20440;-74
2022/06/20 01:42:19;;;;;;;10.47;3.60;;;;;;;19.95;62.44;99110.06;4228583;28;20390;-72
2022/06/20 01:44:50;;;;;;;7.83;3.40;;;;;;;19.89;62.71;99112.91;4217459;28;20287;-71
2022/06/20 01:47:17;;;;;;;11.00;3.67;;;;;;;19.80;63.36;99115.13;4213854;28;20231;-71
2022/06/20 01:49:45;;;;;;;8.13;3.77;;;;;;;19.80;63.45;99115.94;4229269;28;20238;-71
2022/06/20 01:52:20;;;;;;;7.67;3.30;;;;;;;19.83;63.86;99125.47;4229626;28;20290;-71
2022/06/20 01:55:02;;;;;;;7.90;3.27;;;;;;;19.67;64.46;99116.19;4239626;28;20239;-69
2022/06/20 01:57:30;;;;;;;6.27;3.50;;;;;;;19.74;64.30;99122.31;4230997;28;20361;-69
2022/06/20 02:00:03;;;;;;;7.57;3.90;;;;;;;19.77;64.45;99131.81;4227000;28;20325;-67
2022/06/20 02:02:33;;;;;;;14.80;3.87;;;;;;;19.78;64.41;99128.88;4222811;28;20235;-67
2022/06/20 02:05:03;;;;;;;8.23;3.80;;;;;;;19.66;65.16;99127.22;4224485;28;20242;-65
2022/06/20 02:07:31;;;;;;;11.73;3.83;;;;;;;19.50;65.97;99128.75;4207040;28;21600;-66
2022/06/20 02:09:57;;;;;;;9.37;4.17;;;;;;;19.48;66.13;99122.75;4229300;28;20433;-65
2022/06/20 02:12:25;;;;;;;9.77;3.97;;;;;;;19.61;65.52;99133.31;4217848;28;20365;-66
2022/06/20 02:14:55;;;;;;;9.80;4.30;;;;;;;19.69;65.34;99148.34;4232682;28;20267;-66
2022/06/20 02:17:26;;;;;;;10.97;3.90;;;;;;;19.66;65.63;99152.31;4231602;28;20302;-69
2022/06/20 02:19:54;;;;;;;7.07;4.20;;;;;;;19.49;66.41;99154.09;4229584;28;20405;-66
2022/06/20 02:22:22;;;;;;;9.43;4.40;;;;;;;19.47;67.02;99164.31;4222944;28;21765;-65
2022/06/20 02:24:55;;;;;;;10.23;4.30;;;;;;;19.28;67.88;99147.41;4205193;28;20231;-66
2022/06/20 02:27:30;;;;;;;8.80;4.67;;;;;;;19.16;68.74;99134.72;4231069;28;21051;-66
2022/06/20 02:29:57;;;;;;;8.70;4.00;;;;;;;19.17;68.64;99133.69;4228978;28;21135;-66
2022/06/20 02:32:27;;;;;;;12.40;4.00;;;;;;;19.25;68.36;99146.00;4216558;28;20242;-66
2022/06/20 02:34:54;;;;;;;11.63;4.37;;;;;;;19.11;69.29;99147.28;4232371;28;20365;-69
2022/06/20 02:37:23;;;;;;;12.17;4.40;;;;;;;19.04;69.65;99155.47;4233068;28;20242;-66
2022/06/20 02:39:55;;;;;;;13.10;4.70;;;;;;;19.02;70.42;99145.97;4241831;28;21097;-69
2022/06/20 02:42:39;;;;;;;6.63;4.17;;;;;;;19.12;70.11;99157.81;4259726;28;20247;-66
2022/06/20 02:45:11;;;;;;;7.67;4.50;;;;;;;19.27;69.12;99170.00;4240879;28;20317;-66
2022/06/20 02:47:49;;;;;;;11.30;4.53;;;;;;;19.24;69.57;99173.19;4237877;28;20318;-65
2022/06/20 02:50:20;;;;;;;9.20;4.50;;;;;;;19.24;70.05;99174.00;4246051;28;20240;-67
2022/06/20 02:52:52;;;;;;;7.67;4.60;;;;;;;19.18;70.32;99164.97;4240033;28;21038;-67
2022/06/20 02:55:20;;;;;;;8.13;4.50;;;;;;;19.03;71.57;99179.94;4235740;28;24168;-68
2022/06/20 02:57:49;;;;;;;9.77;4.73;;;;;;;19.05;71.86;99177.84;4259546;28;20329;-68
2022/06/20 03:00:20;;;;;;;13.63;4.83;;;;;;;19.08;72.15;99193.56;4253891;28;22527;-67
2022/06/20 03:02:51;;;;;;;17.60;5.43;;;;;;;19.01;72.94;99192.84;4234009;28;20299;-66
2022/06/20 03:05:18;;;;;;;8.33;4.30;;;;;;;19.07;73.38;99200.00;4250806;28;20243;-67
2022/06/20 03:07:46;;;;;;;13.90;4.60;;;;;;;18.96;73.84;99191.69;4235808;28;23255;-67
2022/06/20 03:10:26;;;;;;;13.07;4.73;;;;;;;19.01;74.34;99182.06;4229895;28;21188;-67
2022/06/20 03:12:53;;;;;;;17.67;4.87;;;;;;;19.06;74.71;99190.25;4239451;28;26533;-70
2022/06/20 03:15:20;;;;;;;11.17;4.40;;;;;;;19.21;74.30;99195.25;4223826;28;20236;-67
2022/06/20 03:17:48;;;;;;;12.73;4.07;;;;;;;19.32;74.31;99197.97;4258748;28;20309;-67
2022/06/20 03:20:18;;;;;;;13.70;4.43;;;;;;;19.16;75.54;99207.53;4227931;28;22894;-66
2022/06/20 03:23:10;;;;;;;14.73;5.00;;;;;;;18.85;77.36;99205.94;4230287;28;20307;-67
2022/06/20 03:25:39;;;;;;;14.63;5.33;;;;;;;18.79;78.43;99206.84;4245010;28;22871;-67
2022/06/20 03:28:18;;;;;;;15.80;4.47;;;;;;;18.84;78.66;99209.66;4230335;28;20240;-66
2022/06/20 03:31:01;;;;;;;13.33;4.57;;;;;;;19.01;78.32;99204.47;4243539;28;20454;-66
2022/06/20 03:33:29;;;;;;;16.03;4.33;;;;;;;19.21;77.61;99204.16;4244837;28;20353;-66
2022/06/20 03:36:00;;;;;;;11.57;4.03;;;;;;;19.27;77.08;99205.09;4229566;28;20238;-67
2022/06/20 03:38:27;;;;;;;17.90;4.40;;;;;;;19.04;78.28;99206.69;4210716;28;20286;-68
2022/06/20 03:40:54;;;;;;;12.47;4.27;;;;;;;19.18;77.79;99205.44;4228097;28;26218;-66
2022/06/20 03:43:23;;;;;;;13.67;4.43;;;;;;;19.29;77.44;99209.22;4260377;28;20265;-66
2022/06/20 03:45:55;;;;;;;20.50;4.33;;;;;;;19.45;76.97;99213.09;4240505;28;20228;-68
2022/06/20 03:48:25;;;;;;;9.73;3.80;;;;;;;19.56;76.66;99219.56;4228661;28;20251;-66
2022/06/20 03:51:05;;;;;;;14.93;3.90;;;;;;;19.56;76.79;99211.47;4232464;28;20351;-66
2022/06/20 03:53:50;;;;;;;16.53;3.90;;;;;;;19.64;76.41;99216.50;4232166;28;20811;-68
2022/06/20 03:56:34;;;;;;;13.50;4.00;;;;;;;19.73;75.85;99215.13;4242920;28;20407;-67
2022/06/20 03:59:12;;;;;;;10.60;3.53;;;;;;;19.73;75.77;99225.13;4231673;28;20322;-67
2022/06/20 04:01:45;;;;;;;12.90;3.57;;;;;;;19.54;76.40;99245.97;4224466;28;20234;-66
2022/06/20 04:04:28;;;;;;;10.90;3.80;;;;;;;19.45;77.38;99242.75;4208764;28;21874;-66
2022/06/20 04:07:06;;;;;;;7.43;3.33;;;;;;;19.63;76.69;99247.25;4221292;28;20979;-68
2022/06/20 04:12:59;;;;;;;10.27;3.13;;;;;;;19.75;76.47;99256.22;4231265;28;20248;-70
2022/06/20 04:16:01;;;;;;;12.23;3.80;;;;;;;19.64;76.61;99253.47;4234839;28;20241;-67
2022/06/20 04:18:49;;;;;;;14.60;3.60;;;;;;;19.29;78.43;99255.06;4222684;28;20306;-66
2022/06/20 04:21:25;;;;;;;18.80;4.90;;;;;;;19.55;77.28;99247.59;4249464;28;20231;-67
2022/06/20 04:23:56;;;;;;;13.17;3.90;;;;;;;19.69;76.71;99253.63;4234563;28;20246;-67
2022/06/20 04:26:59;;;;;;;12.23;3.43;;;;;;;19.76;76.10;99260.56;4245830;28;20239;-67
2022/06/20 04:29:47;;;;;;;16.97;3.50;;;;;;;20.04;75.04;99261.72;4230735;28;20281;-67
2022/06/20 04:32:23;;;;;;;16.10;3.83;;;;;;;19.89;75.74;99274.88;4227425;28;20235;-68
2022/06/20 04:34:57;;;;;;;9.33;3.37;;;;;;;20.09;75.77;99301.53;4240194;28;21063;-68
2022/06/20 04:37:37;;;;;;;13.47;3.93;;;;;;;20.30;74.08;99311.75;4218132;28;22289;-67
2022/06/20 04:40:26;;;;;;;9.70;3.50;;;;;;;20.52;73.47;99321.94;4218204;28;20299;-66
2022/06/20 04:43:01;;;;;;;10.23;3.43;;;;;;;20.27;74.28;99333.00;4232484;28;21147;-67
2022/06/20 04:45:28;;;;;;;10.80;3.47;;;;;;;20.55;72.84;99337.69;4212578;28;20311;-68
2022/06/20 04:48:04;;;;;;;21.70;4.23;;;;;;;20.68;72.56;99334.75;4238022;28;20313;-67
2022/06/20 04:50:32;;;;;;;11.10;3.33;;;;;;;20.63;72.23;99327.38;4219491;28;20235;-72
2022/06/20 04:53:05;;;;;;;16.70;3.93;;;;;;;20.59;72.42;99326.19;4228446;28;20786;-70
2022/06/20 04:55:33;;;;;;;16.93;3.83;;;;;;;20.51;72.43;99315.72;4217913;28;20235;-67
2022/06/20 04:58:03;;;;;;;11.20;3.50;;;;;;;20.41;73.67;99310.09;4231158;28;20394;-68
2022/06/20 05:00:40;;;;;;;13.43;3.90;;;;;;;20.48;73.50;99321.59;4239493;28;23012;-67
2022/06/20 05:03:09;;;;;;;15.77;3.97;;;;;;;20.40;73.38;99317.38;4238106;28;20239;-68
2022/06/20 05:05:40;;;;;;;14.77;3.37;;;;;;;20.32;73.84;99316.91;4210393;28;20248;-70
2022/06/20 05:08:11;;;;;;;11.80;3.27;;;;;;;20.23;74.19;99311.06;4214695;28;20232;-67
2022/06/20 05:10:46;;;;;;;12.80;3.33;;;;;;;20.16;74.54;99316.59;4233844;28;21049;-68
2022/06/20 05:13:20;;;;;;;14.00;3.90;;;;;;;20.15;74.90;99311.41;4244652;28;21422;-67
2022/06/20 05:15:48;;;;;;;9.73;3.73;;;;;;;20.28;74.59;99323.88;4229347;28;20239;-69
2022/06/20 05:18:30;;;;;;;15.50;4.33;;;;;;;20.42;74.56;99317.97;4248240;28;20874;-69
2022/06/20 05:21:09;;;;;;;13.03;3.93;;;;;;;20.48;74.22;99329.69;4228603;28;21130;-67
2022/06/20 05:23:43;;;;;;;22.37;3.83;;;;;;;20.33;74.54;99335.59;4231850;28;20304;-67
2022/06/20 05:26:31;;;;;;;13.40;3.53;;;;;;;20.28;75.30;99342.78;4227355;28;21743;-69
2022/06/20 05:29:02;;;;;;;12.20;3.57;;;;;;;20.42;74.60;99352.28;4242835;28;20230;-67
2022/06/20 05:31:33;;;;;;;16.20;3.83;;;;;;;20.22;74.83;99350.75;4236792;28;20281;-67
2022/06/20 05:34:10;;;;;;;12.47;3.80;;;;;;;20.16;75.08;99349.00;4219757;28;20706;-68
2022/06/20 05:37:13;;;;;;;14.70;4.53;;;;;;;19.96;75.47;99346.63;4231744;28;21418;-67
2022/06/20 05:39:44;;;;;;;10.60;3.80;;;;;;;20.08;75.64;99364.72;4230458;28;20246;-68
2022/06/20 05:42:14;;;;;;;13.00;3.57;;;;;;;19.95;76.26;99379.28;4232096;28;22217;-67
2022/06/20 05:44:41;;;;;;;12.23;3.90;;;;;;;19.96;76.71;99381.72;4243566;28;20239;-67
2022/06/20 05:47:19;;;;;;;14.70;4.10;;;;;;;19.79;77.56;99357.28;4221388;28;21736;-68
2022/06/20 05:49:50;;;;;;;9.87;3.60;;;;;;;19.88;77.24;99343.44;4217767;28;20259;-68
2022/06/20 05:52:20;;;;;;;12.23;3.50;;;;;;;19.76;76.68;99338.84;4219824;28;21794;-67
2022/06/20 05:54:53;;;;;;;9.13;3.63;;;;;;;20.02;75.79;99353.78;4235592;28;20325;-70
2022/06/20 05:57:22;;;;;;;12.57;3.93;;;;;;;19.95;75.75;99336.06;4208378;28;21680;-72
2022/06/20 05:59:55;;;;;;;9.13;4.40;;;;;;;19.77;77.45;99320.78;4242428;28;20310;-69
2022/06/20 06:02:27;;;;;;;14.07;4.07;;;;;;;19.68;78.04;99316.72;4211031;28;20420;-69
2022/06/20 06:05:12;;;;;;;9.30;4.17;;;;;;;19.96;77.70;99322.31;4212453;28;20243;-73
2022/06/20 06:07:45;;;;;;;9.73;3.47;;;;;;;20.00;77.03;99307.28;4222651;28;21096;-71
2022/06/20 06:10:42;;;;;;;12.87;4.27;;;;;;;19.83;78.06;99295.56;4232762;28;25566;-66
2022/06/20 06:13:24;;;;;;;15.70;4.43;;;;;;;19.92;78.14;99306.81;4240168;28;23601;-68
2022/06/20 06:18:54;;;;;;;14.60;4.57;;;;;;;19.85;77.82;99271.00;4243986;28;20267;-67
2022/06/20 06:21:21;;;;;;;11.03;4.10;;;;;;;19.69;78.49;99254.47;4221178;28;20244;-64
2022/06/20 06:23:48;;;;;;;10.53;3.93;;;;;;;19.81;78.00;99235.56;4244996;28;20228;-43
2022/06/20 06:26:16;;;;;;;10.27;4.20;;;;;;;19.35;79.20;99221.75;4236045;28;20597;-68
2022/06/20 06:28:44;;;;;;;15.37;4.50;;;;;;;19.19;80.25;99217.84;4243849;28;20228;-67
2022/06/20 06:31:21;;;;;;;15.63;4.37;;;;;;;19.27;80.59;99219.41;4249133;28;20224;-68
2022/06/20 06:33:56;;;;;;;12.67;4.03;;;;;;;19.68;79.38;99225.81;4251898;28;20238;-66
2022/06/20 06:36:49;;;;;;;14.70;4.73;;;;;;;19.57;78.83;99232.00;4235743;28;20539;-69
2022/06/20 06:39:27;;;;;;;20.10;4.43;;;;;;;19.74;78.46;99261.88;4229367;28;20233;-66
2022/06/20 06:41:58;;;;;;;17.87;4.73;;;;;;;19.81;77.37;99267.97;4227991;28;25039;-67
2022/06/20 06:44:32;;;;;;;15.00;4.40;;;;;;;19.94;77.54;99275.00;4249484;28;20236;-68
2022/06/20 06:47:00;;;;;;;13.67;4.20;;;;;;;20.32;76.84;99303.41;4229407;28;20240;-68
2022/06/20 06:49:43;;;;;;;12.00;3.97;;;;;;;20.45;76.31;99284.25;4234653;28;25831;-69
2022/06/20 06:52:14;;;;;;;14.70;3.87;;;;;;;20.52;76.64;99262.50;4223289;28;20231;-67
2022/06/20 06:54:42;;;;;;;9.47;4.03;;;;;;;20.48;76.83;99213.50;4216727;28;20228;-70
2022/06/20 06:57:12;;;;;;;19.00;3.93;;;;;;;20.09;79.39;99190.78;4228563;28;20307;-67
2022/06/20 06:59:54;;;;;;;14.67;4.97;;;;;;;19.81;81.94;99195.88;4238240;28;20246;-67
2022/06/20 07:02:23;;;;;;;16.87;4.80;;;;;;;19.79;81.68;99219.59;4230617;28;22072;-69
2022/06/20 07:04:59;;;;;;;12.70;4.73;;;;;;;19.95;81.71;99255.06;4244978;28;20322;-67
2022/06/20 07:07:35;;;;;;;16.20;5.33;;;;;;;20.03;82.94;99295.19;4220142;28;22160;-67
2022/06/20 07:10:03;;;;;;;15.97;4.53;;;;;;;19.98;84.07;99316.69;4231113;28;20999;-68
2022/06/20 07:12:48;;;;;;;15.23;5.17;;;;;;;19.82;85.45;99310.91;4235922;28;20235;-69
2022/06/20 07:15:23;;;;;;;19.40;4.97;;;;;;;19.84;84.28;99320.66;4253991;28;20227;-70
2022/06/20 07:18:00;;;;;;;14.47;4.60;;;;;;;19.82;84.93;99307.41;4234476;28;20235;-68
2022/06/20 07:20:32;;;;;;;21.07;5.50;;;;;;;19.96;84.52;99318.78;4225773;28;20243;-39
2022/06/20 07:23:01;;;;;;;16.80;5.07;;;;;;;20.16;84.17;99319.28;4240423;28;20260;-41
2022/06/20 07:25:35;;;;;;;12.47;5.10;;;;;;;20.39;82.41;99306.78;4210402;28;20265;-43
2022/06/20 07:28:09;;;;;;;17.20;5.73;;;;;;;20.42;81.61;99314.44;4245666;28;20238;-44
2022/06/20 07:30:46;;;;;;;13.37;5.17;;;;;;;20.61;80.66;99298.94;4237076;28;20231;-41
2022/06/20 07:33:17;;;;;;;12.07;5.47;;;;;;;20.81;79.37;99317.44;4227898;28;20234;-43
2022/06/20 07:35:48;;;;;;;13.07;5.13;;;;;;;20.69;79.28;99316.66;4235142;28;22233;-43
2022/06/20 07:38:22;;;;;;;16.63;5.63;;;;;;;21.01;78.68;99320.56;4237814;28;20579;-68
2022/06/20 07:41:17;;;;;;;18.17;5.53;;;;;;;20.94;78.21;99319.06;4237636;28;22247;-68
2022/06/20 07:43:50;;;;;;;15.40;5.90;;;;;;;21.03;77.88;99323.03;4234001;28;20603;-72
2022/06/20 07:46:37;;;;;;;12.30;5.30;;;;;;;21.24;75.62;99308.81;4227621;28;20282;-68
2022/06/20 07:49:15;;;;;;;10.83;4.53;;;;;;;21.49;74.83;99305.78;4264832;28;20397;-67
2022/06/20 07:51:43;;;;;;;13.17;5.03;;;;;;;21.33;74.80;99290.31;4223432;28;20315;-68
2022/06/20 07:54:17;;;;;;;15.63;5.97;;;;;;;21.20;75.31;99277.91;4212865;28;20237;-68
2022/06/20 07:56:50;;;;;;;16.17;5.93;;;;;;;21.87;72.98;99258.19;4232900;28;20239;-68
2022/06/20 07:59:26;;;;;;;14.77;6.00;;;;;;;21.97;71.00;99235.84;4208494;28;20229;-67
2022/06/20 08:02:06;;;;;;;19.53;6.23;;;;;;;21.56;71.89;99223.56;4237628;28;20301;-74
2022/06/20 08:04:34;;;;;;;15.23;6.03;;;;;;;21.42;73.18;99212.25;4226038;28;20235;-69
2022/06/20 08:07:05;;;;;;;13.77;6.30;;;;;;;21.16;75.25;99209.09;4235656;28;23405;-68
2022/06/20 08:09:40;;;;;;;15.47;5.87;;;;;;;21.42;74.52;99201.44;4235241;28;21697;-69
2022/06/20 08:12:13;;;;;;;14.47;6.00;;;;;;;22.23;71.63;99182.84;4234014;28;22215;-72
2022/06/20 08:14:46;;;;;;;14.60;5.67;;;;;;;22.66;68.72;99178.44;4224382;28;20286;-71
2022/06/20 08:17:13;;;;;;;18.13;6.20;;;;;;;22.75;68.06;99166.06;4219819;28;20815;-68
2022/06/20 08:19:42;;;;;;;19.40;6.43;;;;;;;23.37;66.10;99151.16;4230803;28;22004;-70
2022/06/20 08:22:33;;;;;;;11.77;6.23;;;;;;;23.67;64.18;99127.16;4237151;28;21014;-68
2022/06/20 08:25:06;;;;;;;13.33;5.90;;;;;;;23.63;63.61;99131.50;4237115;28;20245;-66
2022/06/20 08:27:42;;;;;;;15.60;5.40;;;;;;;23.58;64.54;99124.97;4205182;28;20419;-69
2022/06/20 08:30:15;;;;;;;18.43;6.13;;;;;;;24.21;61.61;99111.41;4241612;28;20354;-67
2022/06/20 08:33:18;;;;;;;19.40;5.67;;;;;;;24.29;60.72;99096.47;4244845;28;21807;-68
2022/06/20 08:35:51;;;;;;;16.03;5.13;;;;;;;24.29;60.82;99085.59;4245732;28;21801;-71
2022/06/20 08:38:25;;;;;;;13.80;5.10;;;;;;;24.56;60.00;99100.91;4217892;28;22796;-69
2022/06/20 08:41:10;;;;;;;17.20;5.07;;;;;;;24.55;60.45;99093.84;4238082;28;20248;-69
2022/06/20 08:43:54;;;;;;;18.30;4.90;;;;;;;24.90;58.97;99095.78;4225505;28;20297;-67
2022/06/20 08:46:39;;;;;;;17.80;5.10;;;;;;;24.78;58.67;99090.59;4212051;28;20238;-66
2022/06/20 08:49:24;;;;;;;18.20;4.93;;;;;;;24.82;58.15;99097.13;4235876;28;21108;-69
2022/06/20 08:52:22;;;;;;;22.53;4.53;;;;;;;25.34;57.01;99105.31;4236354;28;22325;-65
2022/06/20 08:55:13;;;;;;;24.23;4.83;;;;;;;25.57;55.24;99120.25;4235061;28;20231;-67
2022/06/20 08:58:04;;;;;;;15.40;4.20;;;;;;;25.64;55.32;99127.03;4224424;28;20366;-67
2022/06/20 09:00:58;;;;;;;23.20;4.67;;;;;;;25.89;52.80;99144.41;4233087;28;20247;-72
2022/06/20 09:03:31;;;;;;;21.08;3.97;;;;;;;26.47;51.80;99144.72;4230926;28;20237;-68
2022/06/20 09:06:24;;;;;;;19.73;3.90;;;;;;;27.31;49.91;99141.16;4229623;28;20431;-69
2022/06/20 09:09:33;;;;;;;19.30;4.65;;;;;;;27.55;47.56;99124.78;4242512;28;20231;-70
2022/06/20 09:12:20;;;;;;;26.98;4.65;;;;;;;27.92;47.90;99126.06;4221966;28;20243;-68
2022/06/20 09:15:14;;;;;;;19.83;4.40;;;;;;;27.84;46.57;99126.69;4225721;28;20302;-67
2022/06/20 09:17:49;;;;;;;25.83;4.60;;;;;;;27.99;45.44;99118.31;4233431;28;20239;-69
2022/06/20 09:20:35;;;;;;;19.27;4.38;;;;;;;27.72;46.28;99107.94;4234481;28;20239;-69
2022/06/20 09:23:08;;;;;;;17.45;3.88;;;;;;;27.58;46.26;99094.13;4239137;28;20234;-72
2022/06/20 09:25:57;;;;;;;23.85;4.95;;;;;;;27.70;45.68;99097.31;4222217;28;20227;-71
2022/06/20 09:28:50;;;;;;;18.80;4.87;;;;;;;27.45;46.22;99090.19;4217484;28;22353;-69
2022/06/20 09:31:49;;;;;;;24.10;4.20;;;;;;;27.35;47.61;99093.84;4218797;28;20332;-69
2022/06/20 09:34:15;;;;;;;22.15;4.43;;;;;;;27.58;46.88;99094.97;4220646;28;20414;-68
2022/06/20 09:37:00;;;;;;;13.18;3.90;;;;;;;27.58;46.58;99096.88;4236895;28;21146;-69
2022/06/20 09:40:08;;;;;;;13.50;3.78;;;;;;;28.24;44.53;99106.22;4225146;28;20362;-67
2022/06/20 09:42:56;;;;;;;13.32;3.72;;;;;;;28.43;44.25;99117.19;4231853;28;22444;-65
2022/06/20 09:45:44;;;;;;;18.45;4.38;;;;;;;27.67;46.89;99122.47;4254810;28;20240;-67
2022/06/20 09:48:25;;;;;;;12.00;3.40;;;;;;;27.97;45.73;99129.53;4217341;28;20241;-68
2022/06/20 09:50:59;;;;;;;17.40;3.70;;;;;;;28.01;45.65;99137.16;4239196;28;20232;-68
2022/06/20 09:53:39;;;;;;;18.33;3.60;;;;;;;28.18;45.51;99138.28;4209274;28;20356;-69
2022/06/20 09:56:25;;;;;;;21.13;4.15;;;;;;;28.01;45.85;99135.25;4217613;28;20269;-68
2022/06/20 09:59:32;;;;;;;18.67;3.67;;;;;;;28.03;46.28;99134.97;4225494;28;20235;-65
2022/06/20 10:02:13;;;;;;;15.57;3.58;;;;;;;28.30;44.65;99142.53;4234941;28;21245;-70
2022/06/20 10:05:14;;;;;;;19.13;4.20;;;;;;;27.96;46.01;99146.25;4229938;28;20318;-69
2022/06/20 10:07:51;;;;;;;13.70;3.70;;;;;;;28.22;46.98;99148.66;4240582;28;23642;-70
2022/06/20 10:10:44;;;;;;;13.05;4.05;;;;;;;28.57;48.17;99153.69;4218840;28;20325;-67
2022/06/20 10:13:20;;;;;;;17.80;4.75;;;;;;;28.51;47.70;99141.16;4231008;28;22817;-67
2022/06/20 10:16:03;;;;;;;16.13;4.20;;;;;;;28.27;48.71;99145.88;4216257;28;20235;-68
2022/06/20 10:18:48;;;;;;;10.45;4.32;;;;;;;28.16;49.25;99140.50;4224278;28;20232;-72
2022/06/20 10:21:34;;;;;;;18.92;5.20;;;;;;;28.12;51.66;99120.34;4241150;28;20235;-70
2022/06/20 10:24:13;;;;;;;19.00;4.95;;;;;;;27.72;52.97;99119.69;4239983;28;20305;-68
2022/06/20 10:27:11;;;;;;;18.20;4.45;;;;;;;27.69;53.71;99128.47;4218764;28;20852;-70
2022/06/20 10:30:13;;;;;;;13.38;4.82;;;;;;;27.53;55.02;99127.00;4241030;28;20243;-72
2022/06/20 10:32:54;;;;;;;17.55;5.10;;;;;;;26.92;57.14;99125.59;4210619;28;20232;-69
2022/06/20 10:35:51;;;;;;;8.00;4.60;;;;;;;26.56;59.19;99114.16;4232896;28;20231;-71
2022/06/20 10:38:36;;;;;;;14.73;5.50;;;;;;;26.50;59.81;99110.59;4219289;28;20234;-68
2022/06/20 10:41:08;;;;;;;11.85;5.97;;;;;;;26.15;59.57;99108.88;4217022;28;22869;-69
2022/06/20 10:44:01;;;;;;;20.25;5.53;;;;;;;26.01;59.99;99112.22;4238383;28;20414;-68
2022/06/20 10:46:42;;;;;;;10.70;5.20;;;;;;;26.19;59.42;99099.03;4227909;28;20518;-69
2022/06/20 10:49:35;;;;;;;12.95;5.55;;;;;;;25.82;60.51;99097.53;4215024;28;20302;-69
2022/06/20 10:52:20;;;;;;;13.63;5.13;;;;;;;25.59;61.89;99105.25;4234797;28;22374;-67
2022/06/20 10:55:34;;;;;;;17.95;5.53;;;;;;;25.85;60.64;99129.72;4251755;28;20383;-68
2022/06/20 10:58:48;;;;;;;12.47;5.40;;;;;;;26.16;59.85;99135.88;4258390;28;21168;-68
2022/06/20 11:01:58;;;;;;;11.17;5.57;;;;;;;26.48;58.46;99161.88;4202769;28;20404;-72
2022/06/20 11:04:40;;;;;;;12.53;5.40;;;;;;;25.80;58.79;99184.19;4232357;28;20240;-66
2022/06/20 11:07:32;;;;;;;9.03;5.40;;;;;;;25.25;60.01;99201.16;4249469;28;20244;-67
2022/06/20 11:10:22;;;;;;;15.23;5.03;;;;;;;24.25;62.98;99214.19;4239496;28;21641;-69
2022/06/20 11:13:07;;;;;;;12.83;5.83;;;;;;;23.88;63.30;99226.78;4218414;28;20581;-69
2022/06/20 11:15:50;;;;;;;10.10;5.77;;;;;;;22.72;66.39;99228.97;4234375;28;21182;-67
2022/06/20 11:18:40;;;;;;;9.30;5.90;;;;;;;22.03;69.46;99236.72;4218960;28;20232;-69
2022/06/20 11:21:24;;;;;;;13.80;6.63;;;;;;;21.44;72.06;99238.00;4224787;28;20295;-67
2022/06/20 11:23:57;;;;;;;11.87;5.77;;;;;;;21.41;72.76;99243.91;4224949;28;20236;-69
2022/06/20 11:26:33;;;;;;;12.30;5.90;;;;;;;21.15;73.57;99249.94;4226824;28;21832;-68
2022/06/20 11:29:13;;;;;;;12.77;6.17;;;;;;;20.93;74.83;99238.97;4210880;28;22621;-71
2022/06/20 11:31:52;;;;;;;9.47;5.97;;;;;;;20.66;76.57;99228.75;4234671;28;20406;-68
2022/06/20 11:34:45;;;;;;;15.67;5.83;;;;;;;20.34;77.85;99218.34;4217813;28;20312;-69
2022/06/20 11:37:37;;;;;;;10.97;6.03;;;;;;;20.55;77.29;99206.06;4213823;28;20232;-69
2022/06/20 11:40:15;;;;;;;10.23;5.37;;;;;;;20.35;77.80;99206.50;4225619;28;21140;-68
2022/06/20 11:42:58;;;;;;;12.63;5.67;;;;;;;20.28;78.36;99196.88;4230795;28;20354;-70
2022/06/20 11:45:47;;;;;;;18.07;5.37;;;;;;;20.34;78.12;99195.91;4212657;28;20341;-69
2022/06/20 11:48:44;;;;;;;14.47;5.50;;;;;;;20.41;77.94;99193.88;4240733;28;20256;-69
2022/06/20 11:51:24;;;;;;;18.40;5.43;;;;;;;20.26;78.58;99182.78;4234024;28;20836;-68
2022/06/20 11:53:55;;;;;;;12.10;5.00;;;;;;;20.16;79.55;99184.22;4206139;28;21062;-67
2022/06/20 11:56:26;;;;;;;13.80;5.30;;;;;;;20.32;78.97;99187.22;4229928;28;20244;-69
2022/06/20 11:59:29;;;;;;;10.20;5.10;;;;;;;20.23;79.37;99198.41;4224402;28;20289;-68
2022/06/20 12:02:18;;;;;;;15.53;5.23;;;;;;;20.32;79.20;99223.19;4213440;28;21582;-67
2022/06/20 12:04:53;;;;;;;15.73;4.87;;;;;;;20.46;79.05;99272.34;4232401;28;20339;-70
2022/06/20 12:07:49;;;;;;;10.07;4.60;;;;;;;20.30;79.39;99332.53;4242804;28;20351;-68
2022/06/20 12:10:32;;;;;;;9.57;4.57;;;;;;;20.21;79.54;99327.50;4239777;28;22164;-69
2022/06/20 12:13:13;;;;;;;10.10;5.17;;;;;;;19.88;82.02;99252.47;4254056;28;20599;-72
2022/06/20 12:16:13;;;;;;;13.37;5.60;;;;;;;19.67;84.56;99162.06;4212495;28;20244;-68
2022/06/20 12:24:46;;;;;;;16.23;6.73;;;;;;;18.76;95.32;99189.25;4212536;28;21761;-68
2022/06/20 12:27:16;;;;;;;12.47;6.10;;;;;;;18.48;97.01;99181.72;4228681;28;20258;-69
2022/06/20 12:29:44;;;;;;;13.30;5.60;;;;;;;18.44;98.12;99207.47;4231675;28;20298;-68